createdAt,value
2018-01-06T00:00:13.982Z,17.40
2018-01-06T00:02:16.674Z,13.97
2018-01-06T00:04:19.320Z,15.87
2018-01-06T00:06:21.965Z,15.30
2018-01-06T00:08:25.418Z,11.30
2018-01-06T00:10:28.714Z,15.13
2018-01-06T00:12:31.373Z,13.33
2018-01-06T00:14:34.042Z,8.80
2018-01-06T00:16:36.694Z,10.77
2018-01-06T00:18:40.737Z,15.90
2018-01-06T00:20:43.380Z,17.47
2018-01-06T00:22:46.016Z,12.83
2018-01-06T00:24:48.710Z,12.97
2018-01-06T00:26:51.383Z,11.07
2018-01-06T00:28:57.576Z,17.97
2018-01-06T00:31:00.274Z,13.63
2018-01-06T00:33:02.924Z,19.30
2018-01-06T00:35:05.884Z,8.97
2018-01-06T00:37:09.320Z,19.00
2018-01-06T00:39:11.974Z,8.83
2018-01-06T00:41:14.627Z,12.60
2018-01-06T00:43:18.054Z,10.90
2018-01-06T00:45:20.870Z,14.10
2018-01-06T00:47:23.536Z,10.03
2018-01-06T00:49:26.192Z,9.43
2018-01-06T00:51:28.840Z,10.20
2018-01-06T00:53:32.562Z,10.00
2018-01-06T00:55:35.239Z,9.97
2018-01-06T00:57:38.113Z,14.23
2018-01-06T00:59:40.774Z,12.30
2018-01-06T01:01:44.187Z,12.90
2018-01-06T01:03:46.858Z,10.37
2018-01-06T01:05:49.515Z,10.37
2018-01-06T01:07:53.003Z,16.27
2018-01-06T01:09:56.450Z,18.07
2018-01-06T01:12:02.343Z,11.10
2018-01-06T01:14:05.023Z,8.17
2018-01-06T01:16:08.445Z,11.07
2018-01-06T01:18:11.113Z,15.77
2018-01-06T01:20:15.522Z,13.03
2018-01-06T01:22:18.935Z,14.40
2018-01-06T01:24:22.571Z,13.50
2018-01-06T01:26:26.040Z,12.67
2018-01-06T01:28:28.704Z,10.63
2018-01-06T01:30:31.395Z,13.57
2018-01-06T01:32:34.051Z,17.23
2018-01-06T01:34:38.444Z,11.30
2018-01-06T01:36:41.844Z,9.20
2018-01-06T01:38:46.498Z,9.20
2018-01-06T01:40:49.209Z,11.70
2018-01-06T01:42:51.862Z,16.17
2018-01-06T01:44:54.527Z,9.57
2018-01-06T01:46:57.264Z,10.63
2018-01-06T01:49:00.670Z,10.23
2018-01-06T01:51:04.078Z,9.97
2018-01-06T01:53:06.776Z,15.10
2018-01-06T01:55:09.459Z,9.20
2018-01-06T01:57:12.171Z,12.03
2018-01-06T01:59:14.839Z,11.50
2018-01-06T02:01:17.491Z,11.77
2018-01-06T02:03:20.152Z,8.43
2018-01-06T02:05:22.825Z,12.27
2018-01-06T02:07:25.478Z,14.17
2018-01-06T02:09:28.150Z,15.33
2018-01-06T02:11:31.634Z,12.13
2018-01-06T02:13:35.048Z,5.33
2018-01-06T02:15:51.927Z,25.80
2018-01-06T02:17:54.614Z,16.57
2018-01-06T02:19:58.030Z,10.10
2018-01-06T02:22:00.676Z,9.73
2018-01-06T02:24:04.135Z,8.73
2018-01-06T02:26:06.778Z,13.40
2018-01-06T02:28:09.446Z,15.10
2018-01-06T02:30:12.119Z,15.57
2018-01-06T02:32:14.771Z,8.50
2018-01-06T02:34:18.201Z,15.83
2018-01-06T02:36:20.841Z,8.73
2018-01-06T02:38:24.266Z,15.17
2018-01-06T02:40:26.952Z,9.70
2018-01-06T02:42:29.591Z,8.30
2018-01-06T02:44:33.006Z,7.33
2018-01-06T02:46:35.693Z,18.83
2018-01-06T02:48:38.329Z,17.53
2018-01-06T02:50:40.993Z,15.03
2018-01-06T02:52:43.663Z,10.60
2018-01-06T02:54:46.307Z,9.17
2018-01-06T02:56:48.969Z,10.97
2018-01-06T02:58:51.634Z,15.07
2018-01-06T03:00:55.044Z,14.60
2018-01-06T03:02:57.705Z,13.63
2018-01-06T03:05:00.370Z,15.90
2018-01-06T03:07:03.794Z,16.00
2018-01-06T03:09:06.495Z,16.03
2018-01-06T03:11:09.129Z,14.60
2018-01-06T03:13:11.770Z,8.70
2018-01-06T03:15:14.446Z,9.20
2018-01-06T03:17:17.101Z,10.57
2018-01-06T03:19:19.748Z,14.40
2018-01-06T03:21:22.434Z,10.70
2018-01-06T03:23:25.071Z,9.83
2018-01-06T03:25:28.479Z,8.10
2018-01-06T03:27:31.170Z,19.17
2018-01-06T03:29:33.812Z,9.53
2018-01-06T03:31:37.249Z,13.30
2018-01-06T03:33:39.908Z,9.97
2018-01-06T03:35:42.567Z,24.47
2018-01-06T03:37:45.223Z,17.63
2018-01-06T03:39:47.876Z,9.67
2018-01-06T03:41:50.536Z,20.43
2018-01-06T03:43:53.182Z,11.37
2018-01-06T03:45:55.860Z,22.90
2018-01-06T03:47:58.495Z,16.00
2018-01-06T03:50:01.152Z,23.33
2018-01-06T03:52:03.820Z,19.90
2018-01-06T03:54:06.482Z,24.40
2018-01-06T03:56:09.124Z,21.43
2018-01-06T03:58:12.560Z,17.00
2018-01-06T04:00:15.208Z,17.97
2018-01-06T04:02:17.868Z,14.03
2018-01-06T04:04:21.294Z,11.53
2018-01-06T04:06:23.942Z,18.70
2018-01-06T04:08:26.641Z,15.67
2018-01-06T04:10:29.297Z,27.53
2018-01-06T04:12:31.956Z,20.97
2018-01-06T04:14:35.374Z,18.90
2018-01-06T04:16:38.031Z,20.57
2018-01-06T04:18:41.452Z,17.00
2018-01-06T04:20:44.093Z,10.63
2018-01-06T04:22:47.542Z,14.97
2018-01-06T04:24:50.230Z,13.90
2018-01-06T04:26:52.896Z,13.77
2018-01-06T04:28:55.560Z,16.83
2018-01-06T04:30:58.227Z,13.53
2018-01-06T04:33:00.887Z,14.37
2018-01-06T04:35:03.576Z,17.47
2018-01-06T04:37:06.217Z,14.23
2018-01-06T04:39:09.653Z,24.03
2018-01-06T04:41:12.321Z,21.70
2018-01-06T04:43:14.963Z,20.53
2018-01-06T04:45:18.411Z,15.57
2018-01-06T04:47:21.083Z,13.53
2018-01-06T04:49:23.733Z,12.13
2018-01-06T04:51:26.399Z,16.90
2018-01-06T04:53:29.065Z,17.40
2018-01-06T04:55:32.490Z,14.73
2018-01-06T04:57:35.134Z,15.63
2018-01-06T04:59:38.578Z,20.33
2018-01-06T05:01:41.234Z,14.90
2018-01-06T05:03:43.876Z,16.70
2018-01-06T05:05:47.318Z,15.57
2018-01-06T05:07:49.965Z,14.87
2018-01-06T05:09:52.619Z,15.00
2018-01-06T05:11:56.188Z,8.50
2018-01-06T05:13:58.842Z,13.47
2018-01-06T05:16:01.495Z,15.50
2018-01-06T05:18:04.160Z,16.13
2018-01-06T05:20:06.822Z,12.73
2018-01-06T05:22:10.226Z,19.60
2018-01-06T05:24:12.897Z,13.37
2018-01-06T05:26:16.322Z,21.20
2018-01-06T05:28:18.983Z,17.53
2018-01-06T05:30:21.664Z,12.53
2018-01-06T05:32:24.337Z,7.93
2018-01-06T05:34:26.982Z,21.37
2018-01-06T05:36:30.430Z,11.63
2018-01-06T05:38:33.068Z,16.67
2018-01-06T05:40:35.760Z,8.70
2018-01-06T05:42:39.164Z,16.17
2018-01-06T05:44:41.801Z,13.33
2018-01-06T05:46:45.220Z,14.17
2018-01-06T05:48:47.902Z,16.10
2018-01-06T05:50:51.516Z,30.83
2018-01-06T05:52:54.173Z,15.13
2018-01-06T05:54:56.862Z,13.27
2018-01-06T05:56:59.508Z,20.73
2018-01-06T05:59:02.923Z,17.37
2018-01-06T06:01:05.606Z,18.33
2018-01-06T06:03:08.258Z,14.10
2018-01-06T06:05:10.928Z,18.37
2018-01-06T06:07:14.374Z,14.80
2018-01-06T06:09:17.252Z,9.43
2018-01-06T06:11:19.928Z,13.20
2018-01-06T06:13:22.616Z,17.20
2018-01-06T06:15:25.275Z,18.97
2018-01-06T06:17:27.923Z,20.03
2018-01-06T06:19:30.608Z,10.57
2018-01-06T06:21:33.266Z,13.33
2018-01-06T06:23:35.946Z,14.60
2018-01-06T06:25:38.663Z,19.03
2018-01-06T06:27:41.304Z,26.70
2018-01-06T06:29:43.949Z,19.83
2018-01-06T06:31:47.417Z,16.37
2018-01-06T06:33:50.087Z,14.37
2018-01-06T06:35:52.737Z,14.67
2018-01-06T06:37:55.428Z,19.17
2018-01-06T06:39:58.079Z,16.07
2018-01-06T06:42:00.746Z,20.37
2018-01-06T06:44:03.433Z,14.23
2018-01-06T06:46:06.097Z,19.57
2018-01-06T06:48:08.766Z,16.57
2018-01-06T06:50:12.233Z,12.47
2018-01-06T06:52:14.871Z,16.37
2018-01-06T06:54:17.530Z,19.97
2018-01-06T06:56:20.372Z,11.23
2018-01-06T06:58:23.052Z,18.33
2018-01-06T07:00:26.486Z,23.37
2018-01-06T07:02:29.170Z,20.70
2018-01-06T07:04:31.827Z,12.73
2018-01-06T07:06:34.482Z,18.47
2018-01-06T07:08:37.946Z,14.17
2018-01-06T07:10:40.584Z,23.73
2018-01-06T07:12:43.247Z,14.07
2018-01-06T07:14:45.957Z,19.77
2018-01-06T07:16:48.606Z,15.87
2018-01-06T07:18:51.266Z,26.23
2018-01-06T07:20:53.970Z,13.60
2018-01-06T07:22:56.634Z,18.70
2018-01-06T07:24:59.284Z,20.00
2018-01-06T07:27:02.713Z,17.83
2018-01-06T07:29:05.352Z,24.37
2018-01-06T07:31:08.877Z,24.30
2018-01-06T07:33:11.527Z,17.40
2018-01-06T07:35:14.949Z,19.37
2018-01-06T07:37:17.608Z,20.30
2018-01-06T07:39:21.141Z,16.83
2018-01-06T07:41:24.030Z,18.73
2018-01-06T07:43:26.837Z,18.17
2018-01-06T07:45:29.490Z,15.60
2018-01-06T07:47:32.143Z,17.00
2018-01-06T07:49:34.839Z,17.80
2018-01-06T07:51:37.582Z,22.47
2018-01-06T07:53:40.216Z,26.03
2018-01-06T07:55:44.395Z,14.27
2018-01-06T07:57:47.040Z,24.70
2018-01-06T07:59:49.817Z,28.27
2018-01-06T08:01:52.506Z,17.33
2018-01-06T08:03:55.328Z,26.83
2018-01-06T08:05:57.992Z,21.40
2018-01-06T08:08:00.675Z,19.40
2018-01-06T08:10:03.359Z,15.60
2018-01-06T08:12:06.198Z,19.97
2018-01-06T08:14:08.883Z,23.33
2018-01-06T08:16:11.539Z,21.63
2018-01-06T08:18:14.240Z,20.80
2018-01-06T08:20:16.924Z,19.83
2018-01-06T08:22:19.569Z,22.30
2018-01-06T08:24:22.416Z,28.27
2018-01-06T08:26:25.850Z,42.27
2018-01-06T08:28:28.515Z,46.43
2018-01-06T08:30:31.208Z,40.90
2018-01-06T08:32:35.913Z,38.43
2018-01-06T08:34:38.566Z,35.10
2018-01-06T08:36:42.011Z,36.23
2018-01-06T08:38:44.674Z,35.83
2018-01-06T08:40:47.325Z,30.23
2018-01-06T08:42:50.215Z,34.60
2018-01-06T08:44:54.455Z,25.57
2018-01-06T08:46:57.256Z,24.50
2018-01-06T08:49:00.808Z,36.50
2018-01-06T08:51:04.103Z,28.33
2018-01-06T08:53:07.139Z,28.63
2018-01-06T08:55:11.731Z,25.10
2018-01-06T08:57:14.694Z,31.27
2018-01-06T08:59:17.663Z,28.20
2018-01-06T09:01:21.811Z,33.80
2018-01-06T09:03:24.888Z,32.17
2018-01-06T09:05:27.995Z,25.40
2018-01-06T09:07:30.925Z,31.03
2018-01-06T09:09:33.894Z,32.13
2018-01-06T09:11:36.895Z,28.07
2018-01-06T09:13:40.760Z,25.63
2018-01-06T09:15:43.453Z,20.40
2018-01-06T09:17:46.880Z,19.87
2018-01-06T09:19:50.486Z,22.93
2018-01-06T09:21:53.150Z,20.53
2018-01-06T09:23:55.803Z,19.20
2018-01-06T09:25:59.469Z,17.53
2018-01-06T09:28:02.151Z,20.83
2018-01-06T09:30:04.820Z,18.67
2018-01-06T09:32:07.499Z,18.93
2018-01-06T09:34:10.140Z,18.87
2018-01-06T09:36:12.798Z,21.27
2018-01-06T09:38:15.606Z,17.63
2018-01-06T09:40:18.261Z,30.17
2018-01-06T09:42:22.103Z,15.17
2018-01-06T09:44:24.740Z,19.13
2018-01-06T09:46:27.380Z,29.90
2018-01-06T09:48:30.822Z,18.07
2018-01-06T09:50:33.474Z,19.40
2018-01-06T09:52:36.112Z,21.53
2018-01-06T09:54:39.588Z,18.63
2018-01-06T09:56:42.239Z,16.00
2018-01-06T09:58:44.872Z,13.97
2018-01-06T10:00:48.324Z,18.70
2018-01-06T10:02:51.005Z,18.33
2018-01-06T10:04:53.641Z,24.70
2018-01-06T10:06:56.360Z,16.33
2018-01-06T10:08:59.202Z,18.20
2018-01-06T10:11:01.872Z,14.50
2018-01-06T10:13:04.540Z,16.10
2018-01-06T10:15:07.473Z,16.27
2018-01-06T10:17:10.156Z,16.80
2018-01-06T10:19:12.811Z,19.13
2018-01-06T10:21:15.476Z,16.07
2018-01-06T10:23:18.146Z,17.83
2018-01-06T10:25:20.811Z,17.83
2018-01-06T10:27:23.488Z,13.37
2018-01-06T10:29:26.128Z,16.40
2018-01-06T10:31:28.811Z,18.23
2018-01-06T10:33:32.253Z,20.53
2018-01-06T10:35:34.943Z,16.13
2018-01-06T10:37:37.599Z,23.20
2018-01-06T10:39:40.318Z,15.13
2018-01-06T10:41:42.968Z,17.63
2018-01-06T10:43:45.628Z,16.23
2018-01-06T10:45:48.310Z,15.43
2018-01-06T10:47:50.961Z,11.37
2018-01-06T10:49:53.602Z,18.07
2018-01-06T10:51:56.314Z,17.47
2018-01-06T10:53:58.984Z,34.60
2018-01-06T10:56:01.635Z,23.17
2018-01-06T10:58:04.447Z,16.27
2018-01-06T11:00:07.102Z,12.37
2018-01-06T11:02:10.542Z,15.73
2018-01-06T11:04:13.551Z,18.13
2018-01-06T11:06:16.401Z,17.47
2018-01-06T11:08:19.060Z,22.33
2018-01-06T11:10:21.705Z,17.80
2018-01-06T11:12:25.142Z,22.17
2018-01-06T11:14:27.786Z,18.27
2018-01-06T11:16:32.307Z,20.80
2018-01-06T11:18:35.732Z,19.73
2018-01-06T11:20:40.072Z,18.77
2018-01-06T11:22:42.737Z,16.13
2018-01-06T11:24:45.379Z,15.73
2018-01-06T11:26:48.050Z,16.40
2018-01-06T11:28:50.733Z,14.93
2018-01-06T11:30:53.369Z,27.97
2018-01-06T11:32:56.032Z,19.30
2018-01-06T11:34:59.012Z,16.17
2018-01-06T11:37:01.695Z,21.63
2018-01-06T11:39:04.411Z,23.17
2018-01-06T11:41:07.066Z,18.43
2018-01-06T11:43:10.504Z,17.13
2018-01-06T11:45:13.162Z,17.53
2018-01-06T11:47:15.805Z,20.90
2018-01-06T11:49:18.498Z,15.10
2018-01-06T11:51:21.955Z,19.50
2018-01-06T11:53:25.432Z,10.40
2018-01-06T11:55:28.092Z,16.57
2018-01-06T11:57:30.750Z,13.10
2018-01-06T11:59:33.440Z,16.80
2018-01-06T12:01:36.099Z,12.87
2018-01-06T12:03:39.516Z,13.70
2018-01-06T12:05:42.201Z,12.13
2018-01-06T12:07:44.957Z,9.67
2018-01-06T12:09:47.606Z,16.93
2018-01-06T12:11:51.033Z,18.57
2018-01-06T12:13:53.684Z,15.57
2018-01-06T12:15:57.112Z,15.63
2018-01-06T12:17:59.799Z,11.67
2018-01-06T12:20:02.645Z,15.43
2018-01-06T12:22:05.293Z,17.33
2018-01-06T12:24:08.024Z,13.53
2018-01-06T12:26:10.662Z,17.90
2018-01-06T12:28:15.231Z,14.17
2018-01-06T12:30:17.908Z,12.27
2018-01-06T12:32:20.560Z,11.23
2018-01-06T12:34:23.219Z,16.50
2018-01-06T12:36:26.726Z,14.50
2018-01-06T12:38:29.412Z,21.40
2018-01-06T12:40:32.083Z,31.60
2018-01-06T12:42:34.910Z,55.40
2018-01-06T12:44:37.560Z,24.27
2018-01-06T12:46:40.216Z,19.03
2018-01-06T12:48:42.921Z,12.60
2018-01-06T12:50:45.584Z,16.87
2018-01-06T12:52:48.253Z,13.33
2018-01-06T12:54:50.981Z,13.53
2018-01-06T12:56:54.431Z,21.00
2018-01-06T12:58:57.076Z,16.73
2018-01-06T13:00:59.775Z,14.57
2018-01-06T13:03:02.461Z,13.20
2018-01-06T13:05:05.150Z,15.47
2018-01-06T13:07:07.818Z,18.57
2018-01-06T13:09:10.457Z,15.73
2018-01-06T13:11:13.099Z,10.40
2018-01-06T13:13:15.761Z,18.80
2018-01-06T13:15:18.402Z,14.13
2018-01-06T13:17:21.842Z,19.37
2018-01-06T13:19:26.343Z,15.33
2018-01-06T13:21:29.503Z,19.93
2018-01-06T13:23:33.800Z,19.30
2018-01-06T13:25:36.519Z,20.30
2018-01-06T13:27:40.217Z,18.93
2018-01-06T13:29:42.876Z,26.00
2018-01-06T13:31:45.608Z,29.70
2018-01-06T13:33:48.310Z,26.53
2018-01-06T13:35:51.814Z,14.13
2018-01-06T13:37:54.690Z,23.23
2018-01-06T13:39:59.038Z,22.87
2018-01-06T13:42:01.870Z,14.57
2018-01-06T13:44:10.348Z,23.17
2018-01-06T13:46:13.795Z,20.00
2018-01-06T13:48:16.480Z,19.43
2018-01-06T13:50:19.155Z,24.57
2018-01-06T13:52:22.409Z,17.80
2018-01-06T13:54:28.772Z,19.27
2018-01-06T13:56:31.504Z,21.73
2018-01-06T13:58:34.155Z,18.93
2018-01-06T14:00:37.380Z,15.90
2018-01-06T14:02:40.315Z,24.30
2018-01-06T14:04:44.540Z,24.60
2018-01-06T14:06:50.577Z,24.17
2018-01-06T14:08:54.438Z,17.73
2018-01-06T14:10:58.492Z,22.63
2018-01-06T14:13:02.198Z,17.20
2018-01-06T14:15:06.942Z,21.77
2018-01-06T14:17:09.616Z,10.77
2018-01-06T14:19:12.828Z,23.97
2018-01-06T14:21:15.501Z,16.67
2018-01-06T14:23:18.573Z,19.03
2018-01-06T14:25:21.243Z,27.33
2018-01-06T14:27:23.886Z,21.60
2018-01-06T14:29:27.583Z,16.90
2018-01-06T14:31:31.014Z,19.50
2018-01-06T14:33:33.689Z,25.73
2018-01-06T14:35:36.338Z,25.07
2018-01-06T14:37:39.811Z,23.60
2018-01-06T14:39:42.456Z,15.97
2018-01-06T14:41:45.179Z,25.60
2018-01-06T14:43:48.581Z,21.90
2018-01-06T14:45:51.308Z,23.80
2018-01-06T14:47:54.730Z,36.60
2018-01-06T14:49:57.407Z,21.37
2018-01-06T14:52:00.107Z,24.60
2018-01-06T14:54:03.532Z,20.73
2018-01-06T14:56:06.195Z,17.87
2018-01-06T14:58:08.864Z,25.40
2018-01-06T15:00:11.537Z,18.60
2018-01-06T15:02:14.236Z,18.57
2018-01-06T15:04:16.887Z,18.73
2018-01-06T15:06:19.533Z,21.00
2018-01-06T15:08:22.986Z,17.43
2018-01-06T15:10:25.646Z,15.80
2018-01-06T15:12:28.312Z,15.40
2018-01-06T15:14:30.964Z,32.50
2018-01-06T15:16:34.412Z,19.17
2018-01-06T15:18:37.112Z,29.40
2018-01-06T15:20:39.795Z,25.73
2018-01-06T15:22:42.534Z,23.27
2018-01-06T15:24:45.183Z,24.80
2018-01-06T15:26:47.840Z,26.43
2018-01-06T15:28:51.268Z,32.73
2018-01-06T15:30:53.927Z,28.33
2018-01-06T15:32:56.576Z,21.20
2018-01-06T15:34:59.332Z,24.40
2018-01-06T15:37:03.003Z,19.90
2018-01-06T15:39:05.734Z,21.33
2018-01-06T15:41:08.390Z,21.57
2018-01-06T15:43:11.054Z,23.07
2018-01-06T15:45:13.718Z,23.90
2018-01-06T15:47:16.403Z,30.80
2018-01-06T15:49:19.062Z,30.93
2018-01-06T15:51:22.524Z,28.00
2018-01-06T15:53:27.062Z,35.50
2018-01-06T15:55:29.746Z,29.90
2018-01-06T15:57:32.404Z,33.53
2018-01-06T15:59:35.056Z,30.70
2018-01-06T16:01:37.728Z,27.70
2018-01-06T16:03:40.395Z,32.43
2018-01-06T16:05:43.072Z,33.30
2018-01-06T16:07:45.780Z,25.00
2018-01-06T16:09:49.195Z,28.03
2018-01-06T16:11:51.852Z,29.20
2018-01-06T16:13:55.299Z,43.10
2018-01-06T16:15:57.965Z,46.73
2018-01-06T16:18:00.811Z,31.80
2018-01-06T16:20:03.564Z,35.20
2018-01-06T16:22:06.969Z,37.90
2018-01-06T16:24:10.379Z,31.20
2018-01-06T16:26:13.071Z,36.83
2018-01-06T16:28:15.714Z,39.80
2018-01-06T16:30:19.129Z,33.10
2018-01-06T16:32:22.585Z,35.07
2018-01-06T16:34:26.012Z,31.50
2018-01-06T16:36:28.712Z,32.03
2018-01-06T16:38:31.372Z,33.67
2018-01-06T16:40:34.022Z,29.97
2018-01-06T16:42:37.455Z,33.70
2018-01-06T16:44:40.118Z,33.10
2018-01-06T16:46:42.787Z,49.90
2018-01-06T16:48:45.460Z,35.77
2018-01-06T16:50:48.150Z,35.23
2018-01-06T16:52:50.805Z,32.90
2018-01-06T16:54:53.495Z,42.10
2018-01-06T16:56:56.154Z,34.07
2018-01-06T16:58:58.811Z,36.77
2018-01-06T17:01:01.507Z,37.47
2018-01-06T17:03:04.928Z,34.30
2018-01-06T17:05:07.591Z,37.13
2018-01-06T17:07:10.264Z,35.30
2018-01-06T17:09:12.952Z,29.50
2018-01-06T17:11:15.618Z,30.00
2018-01-06T17:13:18.322Z,32.40
2018-01-06T17:15:20.985Z,37.33
2018-01-06T17:17:23.651Z,31.07
2018-01-06T17:19:26.360Z,38.33
2018-01-06T17:21:29.063Z,32.93
2018-01-06T17:23:31.760Z,42.30
2018-01-06T17:25:35.277Z,43.17
2018-01-06T17:27:37.932Z,39.13
2018-01-06T17:29:41.386Z,38.67
2018-01-06T17:31:44.049Z,33.80
2018-01-06T17:33:46.702Z,32.17
2018-01-06T17:35:49.733Z,33.13
2018-01-06T17:37:52.411Z,31.93
2018-01-06T17:39:55.060Z,30.73
2018-01-06T17:41:57.816Z,33.77
2018-01-06T17:44:00.471Z,37.37
2018-01-06T17:46:03.892Z,36.67
2018-01-06T17:48:06.560Z,40.23
2018-01-06T17:50:09.238Z,39.90
2018-01-06T17:52:11.890Z,37.67
2018-01-06T17:54:15.325Z,38.17
2018-01-06T17:56:17.970Z,30.67
2018-01-06T17:58:20.643Z,31.70
2018-01-06T18:00:23.364Z,45.77
2018-01-06T18:02:26.803Z,38.10
2018-01-06T18:04:30.250Z,39.20
2018-01-06T18:06:32.898Z,38.43
2018-01-06T18:08:35.543Z,38.43
2018-01-06T18:10:38.980Z,45.03
2018-01-06T18:12:41.629Z,37.50
2018-01-06T18:14:44.394Z,34.97
2018-01-06T18:16:47.833Z,41.53
2018-01-06T18:18:50.476Z,34.13
2018-01-06T18:20:53.132Z,38.57
2018-01-06T18:22:56.575Z,40.70
2018-01-06T18:24:59.220Z,41.57
2018-01-06T18:27:01.883Z,40.50
2018-01-06T18:29:05.317Z,44.27
2018-01-06T18:31:07.970Z,41.07
2018-01-06T18:33:10.647Z,50.33
2018-01-06T18:35:13.331Z,37.20
2018-01-06T18:37:15.991Z,40.37
2018-01-06T18:39:19.432Z,50.70
2018-01-06T18:41:22.087Z,39.90
2018-01-06T18:43:24.789Z,42.53
2018-01-06T18:45:27.528Z,42.10
2018-01-06T18:47:30.173Z,53.17
2018-01-06T18:49:33.635Z,40.17
2018-01-06T18:51:36.303Z,41.77
2018-01-06T18:53:38.988Z,40.73
2018-01-06T18:55:41.646Z,34.17
2018-01-06T18:57:44.321Z,47.20
2018-01-06T18:59:46.999Z,41.93
2018-01-06T19:01:49.674Z,35.63
2018-01-06T19:03:52.345Z,46.40
2018-01-06T19:05:55.009Z,42.70
2018-01-06T19:07:57.705Z,45.07
2018-01-06T19:10:00.358Z,39.07
2018-01-06T19:12:03.038Z,47.20
2018-01-06T19:14:05.709Z,45.97
2018-01-06T19:16:08.357Z,48.03
2018-01-06T19:18:11.800Z,53.20
2018-01-06T19:20:14.498Z,43.07
2018-01-06T19:22:17.141Z,45.93
2018-01-06T19:24:19.823Z,51.33
2018-01-06T19:26:22.481Z,49.87
2018-01-06T19:28:25.178Z,47.77
2018-01-06T19:30:27.821Z,48.33
2018-01-06T19:32:31.268Z,52.23
2018-01-06T19:34:33.946Z,45.30
2018-01-06T19:36:36.606Z,49.33
2018-01-06T19:38:39.266Z,56.80
2018-01-06T19:40:41.944Z,58.93
2018-01-06T19:42:44.611Z,54.27
2018-01-06T19:44:47.292Z,49.57
2018-01-06T19:46:50.102Z,50.70
2018-01-06T19:48:52.764Z,52.33
2018-01-06T19:50:55.417Z,54.23
2018-01-06T19:52:58.160Z,59.87
2018-01-06T19:55:00.819Z,49.70
2018-01-06T19:57:03.485Z,55.83
2018-01-06T19:59:07.004Z,57.30
2018-01-06T20:01:09.711Z,54.67
2018-01-06T20:03:12.363Z,61.70
2018-01-06T20:05:15.038Z,50.57
2018-01-06T20:07:17.715Z,54.70
2018-01-06T20:09:20.362Z,62.20
2018-01-06T20:11:23.040Z,64.60
2018-01-06T20:13:25.710Z,68.80
2018-01-06T20:15:28.376Z,64.23
2018-01-06T20:17:31.021Z,65.20
2018-01-06T20:19:33.683Z,67.43
2018-01-06T20:21:37.150Z,74.13
2018-01-06T20:23:39.809Z,64.33
2018-01-06T20:25:42.500Z,71.80
2018-01-06T20:27:45.170Z,66.33
2018-01-06T20:29:47.836Z,78.37
2018-01-06T20:31:50.531Z,69.87
2018-01-06T20:33:53.218Z,63.30
2018-01-06T20:35:55.878Z,68.80
2018-01-06T20:37:59.332Z,62.53
2018-01-06T20:40:02.021Z,68.73
2018-01-06T20:42:04.675Z,63.73
2018-01-06T20:44:07.367Z,71.67
2018-01-06T20:46:10.017Z,68.00
2018-01-06T20:48:13.433Z,70.07
2018-01-06T20:50:16.158Z,58.63
2018-01-06T20:52:18.807Z,59.87
2018-01-06T20:54:21.475Z,57.67
2018-01-06T20:56:24.237Z,62.30
2018-01-06T20:58:26.912Z,52.87
2018-01-06T21:00:29.588Z,55.37
2018-01-06T21:02:32.246Z,53.80
2018-01-06T21:04:34.919Z,55.60
2018-01-06T21:06:38.370Z,54.97
2018-01-06T21:08:41.012Z,55.70
2018-01-06T21:10:43.678Z,64.00
2018-01-06T21:12:46.360Z,50.70
2018-01-06T21:14:49.027Z,50.40
2018-01-06T21:16:51.672Z,52.40
2018-01-06T21:18:54.353Z,51.17
2018-01-06T21:20:57.018Z,59.90
2018-01-06T21:22:59.678Z,69.33
2018-01-06T21:25:02.356Z,53.50
2018-01-06T21:27:04.998Z,50.10
2018-01-06T21:29:07.683Z,57.63
2018-01-06T21:31:10.337Z,58.43
2018-01-06T21:33:13.004Z,55.60
2018-01-06T21:35:16.441Z,57.17
2018-01-06T21:37:19.107Z,60.37
2018-01-06T21:39:21.780Z,53.33
2018-01-06T21:41:24.442Z,51.97
2018-01-06T21:43:27.081Z,59.57
2018-01-06T21:45:29.763Z,60.87
2018-01-06T21:47:33.174Z,62.93
2018-01-06T21:49:35.853Z,58.13
2018-01-06T21:51:38.512Z,55.53
2018-01-06T21:53:41.920Z,57.47
2018-01-06T21:55:44.595Z,51.67
2018-01-06T21:57:47.260Z,59.73
2018-01-06T21:59:50.667Z,49.87
2018-01-06T22:01:53.396Z,52.77
2018-01-06T22:03:56.067Z,64.00
2018-01-06T22:05:59.531Z,59.40
2018-01-06T22:08:02.218Z,55.37
2018-01-06T22:10:04.866Z,63.20
2018-01-06T22:12:07.532Z,58.47
2018-01-06T22:14:10.941Z,64.33
2018-01-06T22:16:13.626Z,63.13
2018-01-06T22:18:16.284Z,58.70
2018-01-06T22:20:18.964Z,60.30
2018-01-06T22:22:21.646Z,59.20
2018-01-06T22:24:24.290Z,59.07
2018-01-06T22:26:26.948Z,72.77
2018-01-06T22:28:31.095Z,59.90
2018-01-06T22:30:34.503Z,76.57
2018-01-06T22:32:37.173Z,59.17
2018-01-06T22:34:39.820Z,61.03
2018-01-06T22:36:42.486Z,55.13
2018-01-06T22:38:45.154Z,61.80
2018-01-06T22:40:48.581Z,59.40
2018-01-06T22:42:52.035Z,56.03
2018-01-06T22:44:54.700Z,58.47
2018-01-06T22:46:57.362Z,55.80
2018-01-06T22:49:00.023Z,57.97
2018-01-06T22:51:02.686Z,57.77
2018-01-06T22:53:06.114Z,57.73
2018-01-06T22:55:08.783Z,53.40
2018-01-06T22:57:11.456Z,56.83
2018-01-06T22:59:14.115Z,52.93
2018-01-06T23:01:20.633Z,48.10
2018-01-06T23:03:23.316Z,54.83
2018-01-06T23:05:25.975Z,50.10
2018-01-06T23:07:28.650Z,53.17
2018-01-06T23:09:32.078Z,48.30
2018-01-06T23:11:34.779Z,47.83
2018-01-06T23:13:37.449Z,46.00
2018-01-06T23:15:40.119Z,44.60
2018-01-06T23:17:43.551Z,42.17
2018-01-06T23:19:46.216Z,39.33
2018-01-06T23:21:48.873Z,42.80
2018-01-06T23:23:51.527Z,39.20
2018-01-06T23:25:54.977Z,38.57
2018-01-06T23:27:57.627Z,38.67
2018-01-06T23:30:00.304Z,37.20
2018-01-06T23:32:02.981Z,36.97
2018-01-06T23:34:05.655Z,37.93
2018-01-06T23:36:08.315Z,34.60
2018-01-06T23:38:11.755Z,39.70
2018-01-06T23:40:14.405Z,42.47
2018-01-06T23:42:17.075Z,35.93
2018-01-06T23:44:19.764Z,42.00
2018-01-06T23:46:22.422Z,37.27
2018-01-06T23:48:25.088Z,33.90
2018-01-06T23:50:28.515Z,35.87
2018-01-06T23:52:31.288Z,37.53
2018-01-06T23:54:34.004Z,34.37
2018-01-06T23:56:36.666Z,33.00
2018-01-06T23:58:40.085Z,37.80
